Country
Station

 

Weather  for  Vladivostok  -  Russian Federation    Russian Federation

  
2 °C (36 °F)
    
 
 

Current METAR for Vladivostok is :

UHWW 240200Z 26002MPS 9999 NSC 02/M05 Q1017 R25L/0///70 NOSIG RMK QFE761

 

This is a report for Vladivostok - Russian Federation.
 
The report was made 34 minutes ago, at 02:00 UTC .
The wind was blowing at a speed of 2 meters per second (4.5 miles per hour) from west (260°).
 
The temperature was 2 °C (36 °F), with a dew-point at -5 °C (23 °F).
The temperature felt like -0 °C (32 °F).
 
The atmospheric pressure was 1017 hPa (30.03 inHg).
The relative humidity was 59.7%.
 
The overall visibility was greater than 10 kilometers (6.2 miles).
 

 
 
 
 

Country :   A   B   C   D   E   F   G   H   I   J   K   L   M   N   O   P   Q   R   S   T   U   V   W   Y   Z

 

Site Info  |  Disclaimer  |  Credits  |  Privacy
Contact us  |  Add to favorites
© 2013-2020 METARs - All rights reserved